Time,TemperatureF,DewpointF,PressureIn,WindDirection,WindDirectionDegrees,WindSpeedMPH,WindSpeedGustMPH,Humidity,HourlyPrecipIn,Conditions,Clouds,dailyrainin,SoftwareType,DateUTC
2013-01-08 00:03:00,46.3,42.3,30.10,WSW,248,1.8,1.8,86,0.00,,,0.00,WUHU216HW,2013-01-08 08:03:00,
2013-01-08 00:08:00,46.3,42.3,30.10,SW,225,1.6,1.8,86,0.00,,,0.00,WUHU216HW,2013-01-08 08:08:00,
2013-01-08 00:13:00,46.1,42.1,30.10,SSE,158,1.3,1.8,86,0.00,,,0.00,WUHU216HW,2013-01-08 08:13:00,
2013-01-08 00:18:00,46.1,42.1,30.10,SSW,203,0.2,1.6,86,0.00,,,0.00,WUHU216HW,2013-01-08 08:18:00,
2013-01-08 00:23:00,46.1,42.1,30.10,SSW,203,2.2,3.1,86,0.00,,,0.00,WUHU216HW,2013-01-08 08:23:00,
2013-01-08 00:28:00,46.1,42.1,30.10,SSW,203,0.9,3.1,86,0.00,,,0.00,WUHU216HW,2013-01-08 08:28:00,
2013-01-08 00:33:00,46.1,42.5,30.10,West,270,0.2,1.1,87,0.00,,,0.00,WUHU216HW,2013-01-08 08:33:00,
2013-01-08 00:38:00,46.1,42.5,30.10,NE,45,0.9,2.2,87,0.00,,,0.00,WUHU216HW,2013-01-08 08:38:00,
2013-01-08 00:43:00,46.1,42.5,30.10,SE,135,0.7,2.2,87,0.00,,,0.00,WUHU216HW,2013-01-08 08:43:00,
2013-01-08 00:48:00,46.1,42.5,30.10,ESE,113,0.7,1.3,87,0.00,,,0.00,WUHU216HW,2013-01-08 08:48:00,
2013-01-08 00:53:00,46.1,42.5,30.10,NE,45,0.7,1.8,87,0.00,,,0.00,WUHU216HW,2013-01-08 08:53:00,
2013-01-08 00:58:00,46.1,42.5,30.10,SSW,203,0.0,2.5,87,0.00,,,0.00,WUHU216HW,2013-01-08 08:58:00,
2013-01-08 01:03:00,46.1,42.5,30.09,SSW,203,2.2,3.4,87,0.00,,,0.00,WUHU216HW,2013-01-08 09:03:00,
2013-01-08 01:08:00,46.1,42.5,30.10,WSW,248,1.8,3.4,87,0.00,,,0.00,WUHU216HW,2013-01-08 09:08:00,
2013-01-08 01:13:00,46.3,42.7,30.10,WSW,248,2.0,2.7,87,0.00,,,0.00,WUHU216HW,2013-01-08 09:13:00,
2013-01-08 01:18:00,46.1,42.5,30.10,SSW,203,2.7,3.6,87,0.00,,,0.00,WUHU216HW,2013-01-08 09:18:00,
2013-01-08 01:23:00,46.1,42.5,30.09,SE,135,1.1,3.6,87,0.00,,,0.00,WUHU216HW,2013-01-08 09:23:00,
2013-01-08 01:28:00,46.1,42.5,30.09,WSW,248,2.0,2.5,87,0.00,,,0.00,WUHU216HW,2013-01-08 09:28:00,
2013-01-08 01:33:00,46.1,42.5,30.09,WSW,248,1.1,2.2,87,0.00,,,0.00,WUHU216HW,2013-01-08 09:33:00,
2013-01-08 01:38:00,46.1,42.5,30.09,SSW,203,0.4,2.5,87,0.00,,,0.00,WUHU216HW,2013-01-08 09:38:00,
2013-01-08 01:43:00,46.1,42.5,30.10,SW,225,0.9,3.4,87,0.00,,,0.00,WUHU216HW,2013-01-08 09:43:00,
2013-01-08 01:48:00,46.1,42.5,30.10,SW,225,1.1,3.8,87,0.00,,,0.00,WUHU216HW,2013-01-08 09:48:00,
2013-01-08 01:53:00,46.1,42.5,30.09,SW,225,0.7,3.8,87,0.00,,,0.00,WUHU216HW,2013-01-08 09:53:00,
2013-01-08 01:58:00,46.1,42.5,30.09,SW,225,0.9,3.1,87,0.00,,,0.00,WUHU216HW,2013-01-08 09:58:00,
2013-01-08 02:03:00,46.1,42.5,30.09,SW,225,1.8,1.8,87,0.00,,,0.00,WUHU216HW,2013-01-08 10:03:00,
2013-01-08 02:08:00,45.9,42.3,30.09,SW,225,1.8,2.5,87,0.00,,,0.00,WUHU216HW,2013-01-08 10:08:00,
2013-01-08 02:13:00,45.9,42.3,30.09,WSW,248,0.7,2.5,87,0.00,,,0.00,WUHU216HW,2013-01-08 10:13:00,
2013-01-08 02:18:00,45.9,42.3,30.09,WSW,248,1.6,1.8,87,0.00,,,0.00,WUHU216HW,2013-01-08 10:18:00,
2013-01-08 02:23:00,45.7,42.1,30.09,SSW,203,0.4,1.8,87,0.00,,,0.00,WUHU216HW,2013-01-08 10:23:00,
2013-01-08 02:28:00,45.7,42.4,30.09,SE,135,1.8,4.5,88,0.00,,,0.00,WUHU216HW,2013-01-08 10:28:00,
2013-01-08 02:33:00,45.7,42.4,30.09,SE,135,0.0,4.5,88,0.00,,,0.00,WUHU216HW,2013-01-08 10:33:00,
2013-01-08 02:38:00,45.7,42.4,30.09,WSW,248,0.9,2.5,88,0.00,,,0.00,WUHU216HW,2013-01-08 10:38:00,
2013-01-08 02:43:00,45.7,42.4,30.09,SW,225,0.4,2.5,88,0.00,,,0.00,WUHU216HW,2013-01-08 10:43:00,
2013-01-08 02:48:00,45.7,42.4,30.09,WSW,248,0.4,3.4,88,0.00,,,0.00,WUHU216HW,2013-01-08 10:48:00,
2013-01-08 02:53:00,45.5,42.2,30.09,WSW,248,0.9,3.4,88,0.00,,,0.00,WUHU216HW,2013-01-08 10:53:00,
2013-01-08 02:59:00,45.7,42.4,30.09,ESE,113,0.7,2.2,88,0.00,,,0.00,WUHU216HW,2013-01-08 10:59:00,
2013-01-08 03:04:00,45.5,42.2,30.09,SSE,158,0.4,1.1,88,0.00,,,0.00,WUHU216HW,2013-01-08 11:04:00,
2013-01-08 03:09:00,45.5,42.2,30.09,SSW,203,1.1,1.1,88,0.00,,,0.00,WUHU216HW,2013-01-08 11:09:00,
2013-01-08 03:14:00,45.5,42.2,30.09,WSW,248,0.4,1.6,88,0.00,,,0.00,WUHU216HW,2013-01-08 11:14:00,
2013-01-08 03:19:00,45.5,42.2,30.09,SW,225,1.1,2.9,88,0.00,,,0.00,WUHU216HW,2013-01-08 11:19:00,
2013-01-08 03:24:00,45.5,42.2,30.09,WSW,248,0.4,2.9,88,0.00,,,0.00,WUHU216HW,2013-01-08 11:24:00,
2013-01-08 03:29:00,45.4,42.0,30.08,South,180,0.2,2.2,88,0.00,,,0.00,WUHU216HW,2013-01-08 11:29:00,
2013-01-08 03:34:00,45.4,42.0,30.08,SW,225,0.9,1.8,88,0.00,,,0.00,WUHU216HW,2013-01-08 11:34:00,
2013-01-08 03:39:00,45.4,42.0,30.08,ESE,113,0.7,1.8,88,0.00,,,0.00,WUHU216HW,2013-01-08 11:39:00,
2013-01-08 03:44:00,45.4,42.4,30.07,SSE,158,1.1,1.8,89,0.00,,,0.00,WUHU216HW,2013-01-08 11:44:00,
2013-01-08 03:49:00,45.4,42.4,30.08,SE,135,0.2,1.8,89,0.00,,,0.00,WUHU216HW,2013-01-08 11:49:00,
2013-01-08 03:54:00,45.4,42.4,30.07,SE,135,0.9,1.8,89,0.00,,,0.00,WUHU216HW,2013-01-08 11:54:00,
2013-01-08 03:59:00,45.4,42.4,30.07,ESE,113,1.8,1.8,89,0.00,,,0.00,WUHU216HW,2013-01-08 11:59:00,
2013-01-08 04:04:00,45.4,42.4,30.07,WSW,248,1.1,2.2,89,0.00,,,0.00,WUHU216HW,2013-01-08 12:04:00,
2013-01-08 04:09:00,45.4,42.4,30.07,SW,225,0.2,2.2,89,0.00,,,0.00,WUHU216HW,2013-01-08 12:09:00,
2013-01-08 04:14:00,45.4,42.4,30.07,SSE,158,0.4,0.7,89,0.00,,,0.00,WUHU216HW,2013-01-08 12:14:00,
2013-01-08 04:19:00,45.4,42.4,30.07,SW,225,0.4,1.1,89,0.00,,,0.00,WUHU216HW,2013-01-08 12:19:00,
2013-01-08 04:24:00,45.4,42.4,30.07,South,180,0.4,1.1,89,0.00,,,0.00,WUHU216HW,2013-01-08 12:24:00,
2013-01-08 04:29:00,45.4,42.4,30.07,SW,225,0.4,1.3,89,0.00,,,0.00,WUHU216HW,2013-01-08 12:29:00,
2013-01-08 04:34:00,45.4,42.4,30.07,SSE,158,0.4,1.3,89,0.00,,,0.00,WUHU216HW,2013-01-08 12:34:00,
2013-01-08 04:39:00,45.4,42.4,30.07,SSE,158,0.4,1.1,89,0.00,,,0.00,WUHU216HW,2013-01-08 12:39:00,
2013-01-08 04:44:00,45.4,42.4,30.07,ENE,68,0.4,1.3,89,0.00,,,0.00,WUHU216HW,2013-01-08 12:44:00,
2013-01-08 04:49:00,45.4,42.4,30.06,SSW,203,0.9,2.5,89,0.00,,,0.00,WUHU216HW,2013-01-08 12:49:00,
2013-01-08 04:54:00,45.4,42.4,30.07,NE,45,0.2,2.5,89,0.00,,,0.00,WUHU216HW,2013-01-08 12:54:00,
2013-01-08 04:59:00,45.4,42.4,30.07,SSW,203,0.0,0.7,89,0.00,,,0.00,WUHU216HW,2013-01-08 12:59:00,
2013-01-08 05:04:00,45.4,42.4,30.07,SSE,158,0.0,0.7,89,0.00,,,0.00,WUHU216HW,2013-01-08 13:04:00,
2013-01-08 05:09:00,45.4,42.4,30.06,SW,225,0.4,0.9,89,0.00,,,0.00,WUHU216HW,2013-01-08 13:09:00,
2013-01-08 05:14:00,45.4,42.4,30.06,SSE,158,0.2,1.8,89,0.00,,,0.00,WUHU216HW,2013-01-08 13:14:00,
2013-01-08 05:19:00,45.4,42.4,30.05,SSE,158,0.4,1.8,89,0.00,,,0.00,WUHU216HW,2013-01-08 13:19:00,
2013-01-08 05:24:00,45.4,42.4,30.05,SSE,158,0.0,0.7,89,0.00,,,0.00,WUHU216HW,2013-01-08 13:24:00,
2013-01-08 05:29:00,45.4,42.4,30.05,South,180,0.9,0.9,89,0.00,,,0.00,WUHU216HW,2013-01-08 13:29:00,
2013-01-08 05:34:00,45.4,42.4,30.05,South,180,1.1,1.1,89,0.00,,,0.00,WUHU216HW,2013-01-08 13:34:00,
2013-01-08 05:39:00,45.2,42.5,30.05,South,180,0.0,1.1,90,0.00,,,0.00,WUHU216HW,2013-01-08 13:39:00,
2013-01-08 05:44:00,45.2,42.5,30.05,South,180,1.1,1.1,90,0.00,,,0.00,WUHU216HW,2013-01-08 13:44:00,
2013-01-08 05:49:00,45.2,42.5,30.05,SSW,203,0.9,1.1,90,0.00,,,0.00,WUHU216HW,2013-01-08 13:49:00,
2013-01-08 05:54:00,45.2,42.5,30.05,South,180,0.7,1.3,90,0.00,,,0.00,WUHU216HW,2013-01-08 13:54:00,
2013-01-08 05:59:00,45.2,42.5,30.05,SSE,158,0.4,1.3,90,0.00,,,0.00,WUHU216HW,2013-01-08 13:59:00,
2013-01-08 06:04:00,45.2,42.5,30.05,NE,45,0.4,1.1,90,0.00,,,0.00,WUHU216HW,2013-01-08 14:04:00,
2013-01-08 06:09:00,45.2,42.5,30.05,South,180,0.4,1.1,90,0.00,,,0.00,WUHU216HW,2013-01-08 14:09:00,
2013-01-08 06:14:00,45.0,42.6,30.04,SSE,158,0.4,1.6,91,0.00,,,0.00,WUHU216HW,2013-01-08 14:14:00,
2013-01-08 06:19:00,45.0,42.6,30.04,SW,225,1.1,1.6,91,0.01,,,0.00,WUHU216HW,2013-01-08 14:19:00,
2013-01-08 06:24:00,44.8,42.4,30.03,SE,135,0.4,1.6,91,0.01,,,0.00,WUHU216HW,2013-01-08 14:24:00,
2013-01-08 06:29:00,44.6,42.2,30.03,SSE,158,1.3,1.6,91,0.01,,,0.00,WUHU216HW,2013-01-08 14:29:00,
2013-01-08 06:34:00,44.5,41.5,30.03,SE,135,1.1,1.6,89,0.01,,,0.00,WUHU216HW,2013-01-08 14:34:00,
2013-01-08 06:39:00,44.3,41.3,30.02,SSE,158,0.7,1.8,89,0.02,,,0.00,WUHU216HW,2013-01-08 14:39:00,
2013-01-08 06:44:00,44.1,41.1,30.02,SSE,158,1.8,1.8,89,0.02,,,0.00,WUHU216HW,2013-01-08 14:44:00,
2013-01-08 06:49:00,43.9,41.0,30.01,SSW,203,0.4,1.8,89,0.02,,,0.00,WUHU216HW,2013-01-08 14:49:00,
2013-01-08 06:54:00,43.7,41.0,30.01,East,90,0.4,1.6,90,0.03,,,0.00,WUHU216HW,2013-01-08 14:54:00,
2013-01-08 06:59:00,43.6,40.9,30.00,East,90,0.4,1.6,90,0.03,,,0.00,WUHU216HW,2013-01-08 14:59:00,
2013-01-08 07:04:00,43.6,40.9,30.00,East,90,0.9,0.9,90,0.03,,,0.00,WUHU216HW,2013-01-08 15:04:00,
2013-01-08 07:09:00,43.4,40.7,30.00,East,90,0.4,0.9,90,0.03,,,0.00,WUHU216HW,2013-01-08 15:09:00,
2013-01-08 07:14:00,43.4,40.7,30.00,ESE,113,0.4,0.4,90,0.03,,,0.00,WUHU216HW,2013-01-08 15:14:00,
2013-01-08 07:19:00,43.2,40.5,30.01,SE,135,0.4,1.6,90,0.03,,,0.00,WUHU216HW,2013-01-08 15:19:00,
2013-01-08 07:24:00,43.2,40.5,30.01,SE,135,0.0,1.6,90,0.03,,,0.00,WUHU216HW,2013-01-08 15:24:00,
2013-01-08 07:29:00,43.2,40.5,30.00,SE,135,0.4,0.7,90,0.03,,,0.00,WUHU216HW,2013-01-08 15:29:00,
2013-01-08 07:34:00,43.2,40.5,30.00,SE,135,0.0,0.4,90,0.03,,,0.00,WUHU216HW,2013-01-08 15:34:00,
2013-01-08 07:39:00,43.2,40.5,30.00,SE,135,0.0,0.2,90,0.04,,,0.00,WUHU216HW,2013-01-08 15:39:00,
2013-01-08 07:44:00,43.2,40.5,29.99,SE,135,0.0,0.2,90,0.04,,,0.00,WUHU216HW,2013-01-08 15:44:00,
2013-01-08 07:49:00,43.2,40.5,29.99,SE,135,0.0,0.0,90,0.05,,,0.00,WUHU216HW,2013-01-08 15:49:00,
2013-01-08 07:54:00,43.0,40.3,29.99,East,90,0.0,1.8,90,0.04,,,0.00,WUHU216HW,2013-01-08 15:54:00,
2013-01-08 07:59:00,43.0,40.3,29.99,East,90,0.0,1.8,90,0.05,,,0.00,WUHU216HW,2013-01-08 15:59:00,
2013-01-08 08:04:00,43.0,40.3,29.99,East,90,0.0,0.4,90,0.05,,,0.00,WUHU216HW,2013-01-08 16:04:00,
2013-01-08 08:09:00,42.8,40.4,29.99,East,90,0.0,0.4,91,0.05,,,0.00,WUHU216HW,2013-01-08 16:09:00,
2013-01-08 08:14:00,42.8,40.4,29.99,East,90,1.1,1.1,91,0.05,,,0.00,WUHU216HW,2013-01-08 16:14:00,
2013-01-08 08:19:00,42.8,40.4,29.98,East,90,0.0,1.1,91,0.05,,,0.00,WUHU216HW,2013-01-08 16:19:00,
2013-01-08 08:24:00,42.8,40.4,29.98,East,90,0.0,0.2,91,0.06,,,0.00,WUHU216HW,2013-01-08 16:24:00,
2013-01-08 08:29:00,42.8,40.4,29.98,East,90,0.0,0.0,91,0.05,,,0.00,WUHU216HW,2013-01-08 16:29:00,
2013-01-08 08:34:00,42.8,40.4,29.98,East,90,0.4,0.4,91,0.05,,,0.00,WUHU216HW,2013-01-08 16:34:00,
2013-01-08 08:39:00,42.8,40.4,29.98,East,90,0.0,0.4,91,0.05,,,0.00,WUHU216HW,2013-01-08 16:39:00,
2013-01-08 08:44:00,42.8,40.4,29.98,East,90,0.2,1.3,91,0.05,,,0.00,WUHU216HW,2013-01-08 16:44:00,
2013-01-08 08:49:00,42.8,40.4,29.98,East,90,0.0,1.3,91,0.05,,,0.00,WUHU216HW,2013-01-08 16:49:00,
2013-01-08 08:54:00,42.8,40.7,29.98,East,90,0.0,1.1,92,0.05,,,0.00,WUHU216HW,2013-01-08 16:54:00,
2013-01-08 08:59:00,42.8,40.7,29.98,ESE,113,0.4,0.7,92,0.04,,,0.00,WUHU216HW,2013-01-08 16:59:00,
2013-01-08 09:04:00,42.7,40.5,29.98,ESE,113,0.0,0.7,92,0.05,,,0.00,WUHU216HW,2013-01-08 17:04:00,
2013-01-08 09:09:00,42.5,40.3,29.97,SE,135,0.0,1.1,92,0.05,,,0.00,WUHU216HW,2013-01-08 17:09:00,
2013-01-08 09:14:00,42.5,40.3,29.97,ESE,113,0.0,1.6,92,0.05,,,0.00,WUHU216HW,2013-01-08 17:14:00,
2013-01-08 09:19:00,42.5,40.3,29.97,East,90,0.0,1.8,92,0.06,,,0.00,WUHU216HW,2013-01-08 17:19:00,
2013-01-08 09:24:00,42.5,40.3,29.97,East,90,0.0,1.8,92,0.05,,,0.00,WUHU216HW,2013-01-08 17:24:00,
2013-01-08 09:29:00,42.5,40.3,29.96,ESE,113,0.4,0.4,92,0.06,,,0.00,WUHU216HW,2013-01-08 17:29:00,
2013-01-08 09:34:00,42.5,40.3,29.96,ESE,113,0.2,0.4,92,0.06,,,0.00,WUHU216HW,2013-01-08 17:34:00,
2013-01-08 09:39:00,42.5,40.3,29.95,ESE,113,0.4,0.9,92,0.06,,,0.00,WUHU216HW,2013-01-08 17:39:00,
2013-01-08 09:44:00,42.5,40.6,29.94,ESE,113,0.2,0.9,93,0.06,,,0.00,WUHU216HW,2013-01-08 17:44:00,
2013-01-08 09:49:00,42.5,40.6,29.95,NE,45,0.0,1.6,93,0.05,,,0.00,WUHU216HW,2013-01-08 17:49:00,
2013-01-08 09:54:00,42.3,40.4,29.94,East,90,1.6,1.8,93,0.05,,,0.00,WUHU216HW,2013-01-08 17:54:00,
2013-01-08 09:59:00,42.3,40.4,29.94,SSE,158,0.4,1.8,93,0.04,,,0.00,WUHU216HW,2013-01-08 17:59:00,
2013-01-08 10:04:00,42.3,40.4,29.94,SSE,158,0.2,0.4,93,0.05,,,0.00,WUHU216HW,2013-01-08 18:04:00,
2013-01-08 10:09:00,42.5,40.6,29.93,South,180,0.9,0.9,93,0.04,,,0.00,WUHU216HW,2013-01-08 18:09:00,
2013-01-08 10:14:00,42.3,40.4,29.93,ENE,68,0.9,1.3,93,0.03,,,0.00,WUHU216HW,2013-01-08 18:14:00,
2013-01-08 10:19:00,42.3,40.4,29.93,ESE,113,1.1,1.3,93,0.03,,,0.00,WUHU216HW,2013-01-08 18:19:00,
2013-01-08 10:24:00,42.3,40.4,29.93,SW,225,1.1,1.8,93,0.03,,,0.00,WUHU216HW,2013-01-08 18:24:00,
2013-01-08 10:29:00,42.1,40.2,29.92,ESE,113,0.4,1.8,93,0.02,,,0.00,WUHU216HW,2013-01-08 18:29:00,
2013-01-08 10:34:00,42.1,40.2,29.92,ESE,113,1.8,1.8,93,0.01,,,0.00,WUHU216HW,2013-01-08 18:34:00,
2013-01-08 10:39:00,42.1,40.2,29.91,SE,135,0.2,1.8,93,0.01,,,0.00,WUHU216HW,2013-01-08 18:39:00,
2013-01-08 10:44:00,42.1,40.2,29.90,ESE,113,0.4,1.1,93,0.01,,,0.00,WUHU216HW,2013-01-08 18:44:00,
2013-01-08 10:49:00,42.1,40.2,29.90,East,90,0.7,1.1,93,0.01,,,0.00,WUHU216HW,2013-01-08 18:49:00,
2013-01-08 10:54:00,42.1,40.2,29.89,ESE,113,0.0,1.1,93,0.02,,,0.00,WUHU216HW,2013-01-08 18:54:00,
2013-01-08 10:59:00,42.1,40.2,29.89,ESE,113,0.4,1.1,93,0.02,,,0.00,WUHU216HW,2013-01-08 18:59:00,
2013-01-08 11:04:00,42.1,40.2,29.89,SSE,158,0.4,1.1,93,0.01,,,0.00,WUHU216HW,2013-01-08 19:04:00,
2013-01-08 11:09:00,42.1,40.2,29.89,SE,135,0.9,1.1,93,0.01,,,0.00,WUHU216HW,2013-01-08 19:09:00,
2013-01-08 11:14:00,42.3,40.4,29.89,SE,135,0.2,1.1,93,0.01,,,0.00,WUHU216HW,2013-01-08 19:14:00,
2013-01-08 11:19:00,42.3,40.7,29.88,SE,135,0.4,1.1,94,0.01,,,0.00,WUHU216HW,2013-01-08 19:19:00,
2013-01-08 11:24:00,42.5,40.9,29.88,SSE,158,1.1,1.1,94,0.02,,,0.00,WUHU216HW,2013-01-08 19:24:00,
2013-01-08 11:29:00,42.5,40.9,29.88,South,180,0.9,1.1,94,0.02,,,0.00,WUHU216HW,2013-01-08 19:29:00,
2013-01-08 11:34:00,42.5,40.9,29.87,SSE,158,1.1,1.1,94,0.02,,,0.00,WUHU216HW,2013-01-08 19:34:00,
2013-01-08 11:39:00,42.5,40.9,29.87,SSE,158,1.1,1.1,94,0.02,,,0.00,WUHU216HW,2013-01-08 19:39:00,
2013-01-08 11:44:00,42.7,41.0,29.87,SSE,158,1.1,1.1,94,0.02,,,0.00,WUHU216HW,2013-01-08 19:44:00,
2013-01-08 11:49:00,42.8,41.2,29.87,SSW,203,0.4,1.1,94,0.01,,,0.00,WUHU216HW,2013-01-08 19:49:00,
2013-01-08 11:54:00,42.8,41.2,29.87,SSE,158,1.3,1.3,94,0.01,,,0.00,WUHU216HW,2013-01-08 19:54:00,
2013-01-08 11:59:00,42.8,41.2,29.86,SE,135,1.6,2.5,94,0.01,,,0.00,WUHU216HW,2013-01-08 19:59:00,
2013-01-08 12:04:00,43.0,41.7,29.86,SSE,158,0.9,3.1,95,0.01,,,0.00,WUHU216HW,2013-01-08 20:04:00,
2013-01-08 12:09:00,43.2,41.9,29.86,SSE,158,1.1,3.1,95,0.01,,,0.00,WUHU216HW,2013-01-08 20:09:00,
2013-01-08 12:14:00,43.2,41.9,29.86,South,180,0.4,1.1,95,0.02,,,0.00,WUHU216HW,2013-01-08 20:14:00,
2013-01-08 12:19:00,43.4,42.0,29.85,SSE,158,1.8,1.8,95,0.02,,,0.00,WUHU216HW,2013-01-08 20:19:00,
2013-01-08 12:24:00,43.6,42.2,29.85,WSW,248,0.4,1.8,95,0.01,,,0.00,WUHU216HW,2013-01-08 20:24:00,
2013-01-08 12:29:00,43.6,42.2,29.85,SW,225,1.1,1.8,95,0.01,,,0.00,WUHU216HW,2013-01-08 20:29:00,
2013-01-08 12:34:00,43.6,42.2,29.84,South,180,1.1,1.1,95,0.01,,,0.00,WUHU216HW,2013-01-08 20:34:00,
2013-01-08 12:39:00,43.7,42.4,29.84,SSW,203,0.7,1.1,95,0.01,,,0.00,WUHU216HW,2013-01-08 20:39:00,
2013-01-08 12:44:00,43.9,42.6,29.84,NW,315,1.3,1.3,95,0.01,,,0.00,WUHU216HW,2013-01-08 20:44:00,
2013-01-08 12:49:00,44.1,42.8,29.84,South,180,1.1,2.0,95,0.01,,,0.00,WUHU216HW,2013-01-08 20:49:00,
2013-01-08 12:54:00,44.3,42.9,29.84,SE,135,1.3,2.0,95,0.02,,,0.00,WUHU216HW,2013-01-08 20:54:00,
2013-01-08 12:59:00,44.3,42.9,29.83,South,180,2.9,2.9,95,0.02,,,0.00,WUHU216HW,2013-01-08 20:59:00,
2013-01-08 13:04:00,44.6,43.3,29.82,SSE,158,4.0,4.0,95,0.02,,,0.00,WUHU216HW,2013-01-08 21:04:00,
2013-01-08 13:09:00,44.6,43.3,29.82,SE,135,1.1,4.0,95,0.01,,,0.00,WUHU216HW,2013-01-08 21:09:00,
2013-01-08 13:14:00,45.0,43.7,29.82,South,180,1.1,2.9,95,0.01,,,0.00,WUHU216HW,2013-01-08 21:14:00,
2013-01-08 13:19:00,45.4,44.3,29.82,NE,45,1.8,3.8,96,0.01,,,0.00,WUHU216HW,2013-01-08 21:19:00,
2013-01-08 13:24:00,45.5,44.5,29.81,South,180,2.5,3.8,96,0.02,,,0.00,WUHU216HW,2013-01-08 21:24:00,
2013-01-08 13:29:00,45.7,44.6,29.81,ESE,113,2.7,3.4,96,0.02,,,0.00,WUHU216HW,2013-01-08 21:29:00,
2013-01-08 13:34:00,46.1,45.0,29.80,SSE,158,2.0,5.8,96,0.02,,,0.00,WUHU216HW,2013-01-08 21:34:00,
2013-01-08 13:39:00,46.1,45.0,29.80,SSE,158,2.9,5.8,96,0.03,,,0.00,WUHU216HW,2013-01-08 21:39:00,
2013-01-08 13:44:00,46.4,45.4,29.80,SSW,203,2.0,3.6,96,0.03,,,0.00,WUHU216HW,2013-01-08 21:44:00,
2013-01-08 13:49:00,46.4,45.4,29.80,WSW,248,2.9,3.1,96,0.03,,,0.00,WUHU216HW,2013-01-08 21:49:00,
2013-01-08 13:54:00,46.6,45.5,29.80,SE,135,1.3,2.9,96,0.02,,,0.00,WUHU216HW,2013-01-08 21:54:00,
2013-01-08 13:59:00,46.8,45.7,29.80,SE,135,2.5,2.7,96,0.02,,,0.00,WUHU216HW,2013-01-08 21:59:00,
2013-01-08 14:04:00,47.0,45.9,29.80,South,180,3.1,3.1,96,0.02,,,0.00,WUHU216HW,2013-01-08 22:04:00,
2013-01-08 14:09:00,47.0,46.2,29.80,NNE,23,1.8,3.1,97,0.03,,,0.00,WUHU216HW,2013-01-08 22:09:00,
2013-01-08 14:14:00,47.2,46.4,29.80,West,270,0.7,2.9,97,0.03,,,0.00,WUHU216HW,2013-01-08 22:14:00,
2013-01-08 14:19:00,47.3,46.5,29.80,SSW,203,1.6,2.0,97,0.03,,,0.00,WUHU216HW,2013-01-08 22:19:00,
2013-01-08 14:24:00,47.5,46.7,29.80,NE,45,2.5,2.7,97,0.03,,,0.00,WUHU216HW,2013-01-08 22:24:00,
2013-01-08 14:29:00,47.5,46.7,29.80,SSW,203,2.7,2.7,97,0.03,,,0.00,WUHU216HW,2013-01-08 22:29:00,
2013-01-08 14:34:00,47.5,46.7,29.80,SE,135,1.1,2.7,97,0.05,,,0.00,WUHU216HW,2013-01-08 22:34:00,
2013-01-08 14:39:00,47.7,46.9,29.79,WSW,248,3.8,4.0,97,0.04,,,0.00,WUHU216HW,2013-01-08 22:39:00,
2013-01-08 14:44:00,47.7,46.9,29.80,SSE,158,2.5,4.0,97,0.05,,,0.00,WUHU216HW,2013-01-08 22:44:00,
2013-01-08 14:49:00,47.9,47.1,29.80,SE,135,1.3,2.5,97,0.05,,,0.00,WUHU216HW,2013-01-08 22:49:00,
2013-01-08 14:54:00,47.9,47.1,29.80,SSE,158,2.2,2.2,97,0.06,,,0.00,WUHU216HW,2013-01-08 22:54:00,
2013-01-08 14:59:00,47.9,47.1,29.81,SW,225,0.9,2.5,97,0.06,,,0.00,WUHU216HW,2013-01-08 22:59:00,
2013-01-08 15:04:00,48.1,47.3,29.80,WSW,248,3.8,3.8,97,0.08,,,0.00,WUHU216HW,2013-01-08 23:04:00,
2013-01-08 15:09:00,48.1,47.3,29.80,SSE,158,1.3,3.8,97,0.09,,,0.00,WUHU216HW,2013-01-08 23:09:00,
2013-01-08 15:14:00,48.2,47.4,29.80,SSE,158,1.1,3.4,97,0.10,,,0.00,WUHU216HW,2013-01-08 23:14:00,
2013-01-08 15:19:00,48.4,47.6,29.80,SSW,203,1.3,3.4,97,0.11,,,0.00,WUHU216HW,2013-01-08 23:19:00,
2013-01-08 15:24:00,48.6,47.8,29.79,SSE,158,1.8,2.5,97,0.10,,,0.00,WUHU216HW,2013-01-08 23:24:00,
2013-01-08 15:29:00,48.6,47.8,29.79,SE,135,1.6,6.7,97,0.10,,,0.00,WUHU216HW,2013-01-08 23:29:00,
2013-01-08 15:34:00,48.8,48.0,29.79,SW,225,3.8,6.7,97,0.09,,,0.00,WUHU216HW,2013-01-08 23:34:00,
2013-01-08 15:39:00,49.0,48.2,29.78,WSW,248,2.5,3.8,97,0.10,,,0.00,WUHU216HW,2013-01-08 23:39:00,
2013-01-08 15:44:00,49.0,48.2,29.78,SE,135,2.9,3.8,97,0.09,,,0.00,WUHU216HW,2013-01-08 23:44:00,
2013-01-08 15:49:00,49.0,48.2,29.77,SSE,158,2.5,4.0,97,0.09,,,0.00,WUHU216HW,2013-01-08 23:49:00,
2013-01-08 15:54:00,49.0,48.2,29.77,SSE,158,2.5,4.0,97,0.09,,,0.00,WUHU216HW,2013-01-08 23:54:00,
2013-01-08 15:59:00,49.0,48.2,29.77,SW,225,1.6,5.1,97,0.08,,,0.00,WUHU216HW,2013-01-08 23:59:00,
2013-01-08 16:04:00,49.1,48.3,29.77,ESE,113,0.7,5.1,97,0.06,,,0.00,WUHU216HW,2013-01-09 00:04:00,
2013-01-08 16:09:00,49.1,48.3,29.76,SE,135,1.8,4.5,97,0.04,,,0.00,WUHU216HW,2013-01-09 00:09:00,
2013-01-08 16:14:00,49.1,48.3,29.76,ESE,113,1.8,2.9,97,0.04,,,0.00,WUHU216HW,2013-01-09 00:14:00,
2013-01-08 16:19:00,49.1,48.3,29.76,SE,135,1.8,3.8,97,0.03,,,0.00,WUHU216HW,2013-01-09 00:19:00,
2013-01-08 16:24:00,49.3,48.5,29.75,SSE,158,2.5,3.8,97,0.02,,,0.00,WUHU216HW,2013-01-09 00:24:00,
2013-01-08 16:29:00,49.5,48.7,29.76,South,180,4.0,4.0,97,0.02,,,0.00,WUHU216HW,2013-01-09 00:29:00,
2013-01-08 16:34:00,49.5,48.7,29.76,SE,135,4.7,4.7,97,0.01,,,0.00,WUHU216HW,2013-01-09 00:34:00,
2013-01-08 16:39:00,49.7,48.9,29.76,SE,135,0.9,4.7,97,0.01,,,0.00,WUHU216HW,2013-01-09 00:39:00,
2013-01-08 16:44:00,49.7,48.9,29.75,South,180,2.2,3.4,97,0.01,,,0.00,WUHU216HW,2013-01-09 00:44:00,
2013-01-08 16:49:00,49.7,48.9,29.75,SSE,158,2.5,2.7,97,0.01,,,0.00,WUHU216HW,2013-01-09 00:49:00,
2013-01-08 16:54:00,49.9,49.0,29.76,WSW,248,7.6,7.6,97,0.00,,,0.00,WUHU216HW,2013-01-09 00:54:00,
2013-01-08 16:59:00,50.0,49.1,29.76,West,270,1.6,7.6,97,0.00,,,0.00,WUHU216HW,2013-01-09 00:59:00,
2013-01-08 17:04:00,50.0,49.1,29.75,SSE,158,2.2,5.1,97,0.00,,,0.00,WUHU216HW,2013-01-09 01:04:00,
2013-01-08 17:09:00,50.0,49.1,29.75,SSE,158,3.8,4.3,97,0.00,,,0.00,WUHU216HW,2013-01-09 01:09:00,
2013-01-08 17:14:00,50.0,49.1,29.75,SW,225,4.0,6.3,97,0.01,,,0.00,WUHU216HW,2013-01-09 01:14:00,
2013-01-08 17:19:00,50.0,49.1,29.74,SSE,158,2.5,6.3,97,0.01,,,0.00,WUHU216HW,2013-01-09 01:19:00,
2013-01-08 17:24:00,50.2,49.3,29.74,ESE,113,3.4,6.5,97,0.02,,,0.00,WUHU216HW,2013-01-09 01:24:00,
2013-01-08 17:29:00,50.2,49.3,29.74,SSE,158,4.0,6.5,97,0.02,,,0.00,WUHU216HW,2013-01-09 01:29:00,
2013-01-08 17:34:00,50.2,49.1,29.74,ESE,113,2.5,6.5,96,0.02,,,0.00,WUHU216HW,2013-01-09 01:34:00,
2013-01-08 17:39:00,50.2,49.1,29.74,WSW,248,2.2,4.7,96,0.02,,,0.00,WUHU216HW,2013-01-09 01:39:00,
2013-01-08 17:44:00,50.2,49.1,29.73,SSW,203,2.0,4.7,96,0.02,,,0.00,WUHU216HW,2013-01-09 01:44:00,
2013-01-08 17:49:00,50.4,49.2,29.73,SSW,203,4.0,4.0,96,0.02,,,0.00,WUHU216HW,2013-01-09 01:49:00,
2013-01-08 17:54:00,50.4,49.2,29.73,West,270,3.4,4.3,96,0.03,,,0.00,WUHU216HW,2013-01-09 01:54:00,
2013-01-08 17:59:00,50.4,49.2,29.73,NW,315,4.5,4.5,96,0.03,,,0.00,WUHU216HW,2013-01-09 01:59:00,
2013-01-08 18:04:00,50.4,49.2,29.72,SSE,158,4.7,5.1,96,0.03,,,0.00,WUHU216HW,2013-01-09 02:04:00,
2013-01-08 18:09:00,50.4,49.2,29.72,SW,225,2.0,5.1,96,0.02,,,0.00,WUHU216HW,2013-01-09 02:09:00,
2013-01-08 18:14:00,50.4,49.2,29.72,West,270,3.4,7.4,96,0.02,,,0.00,WUHU216HW,2013-01-09 02:14:00,
2013-01-08 18:19:00,50.4,49.2,29.72,SSE,158,1.8,7.4,96,0.01,,,0.00,WUHU216HW,2013-01-09 02:19:00,
2013-01-08 18:24:00,50.2,49.1,29.72,NE,45,4.7,4.7,96,0.01,,,0.00,WUHU216HW,2013-01-09 02:24:00,
2013-01-08 18:29:00,50.2,49.1,29.71,NW,315,1.8,4.7,96,0.01,,,0.00,WUHU216HW,2013-01-09 02:29:00,
2013-01-08 18:34:00,50.2,49.1,29.71,WSW,248,6.3,6.3,96,0.02,,,0.00,WUHU216HW,2013-01-09 02:34:00,
2013-01-08 18:39:00,50.4,49.0,29.71,SSE,158,2.7,6.3,95,0.02,,,0.00,WUHU216HW,2013-01-09 02:39:00,
2013-01-08 18:44:00,50.4,49.0,29.71,SW,225,7.8,7.8,95,0.02,,,0.00,WUHU216HW,2013-01-09 02:44:00,
2013-01-08 18:49:00,50.4,49.0,29.71,WNW,293,4.0,7.8,95,0.02,,,0.00,WUHU216HW,2013-01-09 02:49:00,
2013-01-08 18:54:00,50.4,49.0,29.70,SSE,158,4.5,4.5,95,0.01,,,0.00,WUHU216HW,2013-01-09 02:54:00,
2013-01-08 18:59:00,50.4,48.7,29.70,South,180,7.2,7.2,94,0.01,,,0.00,WUHU216HW,2013-01-09 02:59:00,
2013-01-08 19:04:00,50.6,48.9,29.70,South,180,7.6,9.4,94,0.01,,,0.00,WUHU216HW,2013-01-09 03:04:00,
2013-01-08 19:09:00,50.8,49.1,29.70,SSW,203,6.5,9.4,94,0.01,,,0.00,WUHU216HW,2013-01-09 03:09:00,
2013-01-08 19:14:00,50.8,49.1,29.69,South,180,5.1,6.7,94,0.01,,,0.00,WUHU216HW,2013-01-09 03:14:00,
2013-01-08 19:19:00,50.9,49.0,29.70,SSE,158,7.4,7.4,93,0.01,,,0.00,WUHU216HW,2013-01-09 03:19:00,
2013-01-08 19:24:00,51.1,48.8,29.70,WSW,248,1.8,7.4,92,0.01,,,0.00,WUHU216HW,2013-01-09 03:24:00,
2013-01-08 19:29:00,51.1,48.8,29.70,SSE,158,4.7,7.4,92,0.00,,,0.00,WUHU216HW,2013-01-09 03:29:00,
2013-01-08 19:34:00,51.1,48.8,29.70,West,270,4.3,9.8,92,0.00,,,0.00,WUHU216HW,2013-01-09 03:34:00,
2013-01-08 19:39:00,51.1,48.5,29.70,WNW,293,2.9,9.8,91,0.00,,,0.00,WUHU216HW,2013-01-09 03:39:00,
2013-01-08 19:44:00,51.1,48.5,29.69,South,180,4.3,8.9,91,0.00,,,0.00,WUHU216HW,2013-01-09 03:44:00,
2013-01-08 19:49:00,51.3,48.7,29.70,NW,315,3.4,6.3,91,0.00,,,0.00,WUHU216HW,2013-01-09 03:49:00,
2013-01-08 19:54:00,51.1,48.5,29.70,WSW,248,6.5,6.5,91,0.00,,,0.00,WUHU216HW,2013-01-09 03:54:00,
2013-01-08 19:59:00,51.3,48.4,29.70,WSW,248,6.3,8.9,90,0.00,,,0.00,WUHU216HW,2013-01-09 03:59:00,
2013-01-08 20:04:00,51.3,48.4,29.71,SSW,203,5.4,8.9,90,0.00,,,0.00,WUHU216HW,2013-01-09 04:04:00,
2013-01-08 20:09:00,51.5,48.3,29.71,NNW,338,6.9,8.3,89,0.00,,,0.00,WUHU216HW,2013-01-09 04:09:00,
2013-01-08 20:14:00,51.5,48.3,29.71,SW,225,4.0,8.3,89,0.00,,,0.00,WUHU216HW,2013-01-09 04:14:00,
2013-01-08 20:19:00,51.7,48.5,29.70,NE,45,4.7,6.9,89,0.00,,,0.00,WUHU216HW,2013-01-09 04:19:00,
2013-01-08 20:24:00,51.5,48.6,29.70,NNW,338,2.2,6.5,90,0.00,,,0.00,WUHU216HW,2013-01-09 04:24:00,
2013-01-08 20:29:00,51.5,48.6,29.70,WNW,293,5.1,6.5,90,0.00,,,0.00,WUHU216HW,2013-01-09 04:29:00,
2013-01-08 20:34:00,51.3,48.4,29.70,NW,315,4.5,9.8,90,0.00,,,0.00,WUHU216HW,2013-01-09 04:34:00,
2013-01-08 20:39:00,51.3,48.4,29.69,SE,135,2.7,9.8,90,0.00,,,0.00,WUHU216HW,2013-01-09 04:39:00,
2013-01-08 20:44:00,51.3,48.4,29.69,SSE,158,4.3,5.4,90,0.00,,,0.00,WUHU216HW,2013-01-09 04:44:00,
2013-01-08 20:49:00,51.1,48.5,29.69,West,270,6.3,6.3,91,0.00,,,0.00,WUHU216HW,2013-01-09 04:49:00,
2013-01-08 20:54:00,51.3,48.4,29.69,SSE,158,4.0,6.3,90,0.00,,,0.00,WUHU216HW,2013-01-09 04:54:00,
2013-01-08 20:59:00,51.3,48.4,29.69,WSW,248,4.7,6.9,90,0.00,,,0.00,WUHU216HW,2013-01-09 04:59:00,
2013-01-08 21:00:00,51.3,48.4,29.69,WSW,248,4.7,6.9,90,0.00,,,0.00,WUHU216HW,2013-01-09 05:00:00,
2013-01-08 21:01:00,51.3,48.4,29.69,WSW,248,4.7,6.9,90,0.00,,,0.00,WUHU216HW,2013-01-09 05:01:00,
2013-01-08 21:03:00,51.3,48.4,29.69,WSW,248,4.7,6.9,90,0.00,,,0.00,WUHU216HW,2013-01-09 05:03:00,
2013-01-08 21:08:00,51.3,48.4,29.69,WSW,248,7.8,7.8,90,0.00,,,0.00,WUHU216HW,2013-01-09 05:08:00,
2013-01-08 21:13:00,51.1,48.5,29.69,SSW,203,3.8,7.8,91,0.00,,,0.00,WUHU216HW,2013-01-09 05:13:00,
2013-01-08 21:18:00,51.1,48.5,29.69,SSW,203,6.9,6.9,91,0.00,,,0.00,WUHU216HW,2013-01-09 05:18:00,
2013-01-08 21:23:00,51.1,48.5,29.69,NNW,338,3.6,6.9,91,0.00,,,0.00,WUHU216HW,2013-01-09 05:23:00,
2013-01-08 21:28:00,50.9,48.3,29.69,ENE,68,3.4,6.3,91,0.01,,,0.00,WUHU216HW,2013-01-09 05:28:00,
2013-01-08 21:33:00,50.9,48.3,29.69,NNE,23,2.7,6.5,91,0.01,,,0.00,WUHU216HW,2013-01-09 05:33:00,
2013-01-08 21:38:00,50.8,48.2,29.69,SSW,203,5.8,6.5,91,0.01,,,0.00,WUHU216HW,2013-01-09 05:38:00,
2013-01-08 21:43:00,50.8,48.4,29.69,SW,225,2.7,5.8,92,0.01,,,0.00,WUHU216HW,2013-01-09 05:43:00,
2013-01-08 21:48:00,50.8,48.4,29.69,SW,225,5.8,6.7,92,0.02,,,0.00,WUHU216HW,2013-01-09 05:48:00,
2013-01-08 21:53:00,50.6,48.2,29.69,SSW,203,6.3,6.7,92,0.02,,,0.00,WUHU216HW,2013-01-09 05:53:00,
2013-01-08 21:58:00,50.6,48.2,29.68,NW,315,8.7,8.7,92,0.02,,,0.00,WUHU216HW,2013-01-09 05:58:00,
2013-01-08 22:03:00,50.6,48.6,29.68,SW,225,3.4,9.6,93,0.02,,,0.00,WUHU216HW,2013-01-09 06:03:00,
2013-01-08 22:08:00,50.6,48.6,29.69,SW,225,4.3,9.6,93,0.03,,,0.00,WUHU216HW,2013-01-09 06:08:00,
2013-01-08 22:13:00,50.4,48.4,29.69,South,180,7.6,7.6,93,0.03,,,0.00,WUHU216HW,2013-01-09 06:13:00,
2013-01-08 22:18:00,50.4,48.7,29.69,South,180,2.5,7.6,94,0.04,,,0.00,WUHU216HW,2013-01-09 06:18:00,
2013-01-08 22:23:00,50.4,48.7,29.69,WSW,248,4.0,7.2,94,0.05,,,0.00,WUHU216HW,2013-01-09 06:23:00,
2013-01-08 22:28:00,50.4,48.7,29.69,SSE,158,6.3,8.1,94,0.05,,,0.00,WUHU216HW,2013-01-09 06:28:00,
2013-01-08 22:33:00,50.4,48.7,29.68,ESE,113,6.0,11.4,94,0.05,,,0.00,WUHU216HW,2013-01-09 06:33:00,
2013-01-08 22:38:00,50.2,48.5,29.68,WSW,248,7.6,12.1,94,0.06,,,0.00,WUHU216HW,2013-01-09 06:38:00,
2013-01-08 22:43:00,50.4,48.7,29.68,WSW,248,3.4,12.1,94,0.07,,,0.00,WUHU216HW,2013-01-09 06:43:00,
2013-01-08 22:48:00,50.2,48.5,29.68,WSW,248,3.1,8.3,94,0.07,,,0.00,WUHU216HW,2013-01-09 06:48:00,
2013-01-08 22:53:00,50.2,48.5,29.68,South,180,4.5,6.7,94,0.08,,,0.00,WUHU216HW,2013-01-09 06:53:00,
2013-01-08 22:58:00,50.2,48.5,29.68,SW,225,5.4,10.1,94,0.08,,,0.00,WUHU216HW,2013-01-09 06:58:00,
2013-01-08 23:03:00,50.2,48.5,29.68,NNW,338,5.1,10.1,94,0.09,,,0.00,WUHU216HW,2013-01-09 07:03:00,
2013-01-08 23:08:00,50.2,48.5,29.68,SSW,203,7.6,8.5,94,0.09,,,0.00,WUHU216HW,2013-01-09 07:08:00,
2013-01-08 23:13:00,50.2,48.5,29.68,ESE,113,2.2,8.5,94,0.09,,,0.00,WUHU216HW,2013-01-09 07:13:00,
2013-01-08 23:18:00,50.0,48.3,29.68,WSW,248,9.8,9.8,94,0.10,,,0.00,WUHU216HW,2013-01-09 07:18:00,
2013-01-08 23:23:00,50.0,48.3,29.68,NE,45,6.7,9.8,94,0.10,,,0.00,WUHU216HW,2013-01-09 07:23:00,
2013-01-08 23:28:00,50.0,48.6,29.68,SW,225,6.9,6.9,95,0.10,,,0.00,WUHU216HW,2013-01-09 07:28:00,
2013-01-08 23:33:00,50.0,48.6,29.68,WSW,248,5.1,6.9,95,0.10,,,0.00,WUHU216HW,2013-01-09 07:33:00,
2013-01-08 23:38:00,50.0,48.6,29.68,West,270,6.9,8.5,95,0.09,,,0.00,WUHU216HW,2013-01-09 07:38:00,
2013-01-08 23:43:00,50.0,48.3,29.68,WSW,248,6.3,8.5,94,0.10,,,0.00,WUHU216HW,2013-01-09 07:43:00,
2013-01-08 23:48:00,50.0,48.3,29.69,SE,135,1.8,9.2,94,0.09,,,0.00,WUHU216HW,2013-01-09 07:48:00,
2013-01-08 23:53:00,50.0,48.3,29.69,SE,135,6.5,9.2,94,0.09,,,0.00,WUHU216HW,2013-01-09 07:53:00,
2013-01-08 23:58:00,50.0,48.6,29.69,NW,315,8.5,8.5,95,0.08,,,0.00,WUHU216HW,2013-01-09 07:58:00,